Time;durP1;ratioP1;P1;durP2;ratioP2;P2;SDS_P1;SDS_P2;PMS_P1;PMS_P2;Temp;Humidity;BMP_temperature;BMP_pressure;BME280_temperature;BME280_humidity;BME280_pressure;Samples;Min_cycle;Max_cycle;Signal;HPM_P1;HPM_P2
2021/06/17 00:00:50;;;;;;;22.27;13.30;;;27.80;65.50;;;;;;5124816;27;20805;-74
2021/06/17 00:03:17;;;;;;;22.02;13.50;;;27.80;65.60;;;;;;5130253;27;20442;-74
2021/06/17 00:05:45;;;;;;;23.83;13.87;;;27.80;65.90;;;;;;5128258;27;20778;-74
2021/06/17 00:08:13;;;;;;;24.15;13.95;;;27.70;66.20;;;;;;5128357;27;20428;-75
2021/06/17 00:10:42;;;;;;;26.45;14.30;;;27.80;65.60;;;;;;5129780;27;20427;-74
2021/06/17 00:13:14;;;;;;;21.75;13.02;;;27.70;65.60;;;;;;5131733;27;20441;-73
2021/06/17 00:15:42;;;;;;;23.33;13.63;;;27.70;66.20;;;;;;5129224;27;20778;-73
2021/06/17 00:18:11;;;;;;;21.08;13.80;;;27.70;66.30;;;;;;5130656;27;20418;-73
2021/06/17 00:20:39;;;;;;;22.63;14.10;;;27.60;66.30;;;;;;5129152;27;20423;-73
2021/06/17 00:23:06;;;;;;;23.37;13.67;;;27.70;66.50;;;;;;5129323;27;20422;-74
2021/06/17 00:25:33;;;;;;;22.23;13.40;;;27.60;66.70;;;;;;5128184;27;20429;-74
2021/06/17 00:28:01;;;;;;;21.77;13.38;;;27.60;66.90;;;;;;5131552;27;20406;-73
2021/06/17 00:30:30;;;;;;;21.40;13.18;;;27.60;66.90;;;;;;5127073;27;21304;-74
2021/06/17 00:32:57;;;;;;;24.77;13.75;;;27.60;67.20;;;;;;5127947;27;20870;-76
2021/06/17 00:35:25;;;;;;;22.97;14.23;;;27.60;67.40;;;;;;5128354;27;20929;-74
2021/06/17 00:37:53;;;;;;;25.55;13.85;;;27.60;67.60;;;;;;5131019;27;20410;-75
2021/06/17 00:40:20;;;;;;;22.90;14.30;;;27.60;67.90;;;;;;5127079;27;20414;-74
2021/06/17 00:42:49;;;;;;;25.73;14.63;;;27.50;68.30;;;;;;5130759;27;20720;-75
2021/06/17 00:45:20;;;;;;;22.30;14.27;;;27.50;68.60;;;;;;5128283;27;20414;-74
2021/06/17 00:47:47;;;;;;;24.98;14.55;;;27.40;69.00;;;;;;5129457;27;20877;-74
2021/06/17 00:50:15;;;;;;;23.63;14.77;;;27.40;69.20;;;;;;5127719;27;20449;-76
2021/06/17 00:52:44;;;;;;;23.02;15.38;;;27.40;69.70;;;;;;5160136;27;20934;-74
2021/06/17 00:55:12;;;;;;;27.15;15.80;;;27.40;69.90;;;;;;5128029;27;20418;-73
2021/06/17 00:57:39;;;;;;;27.50;15.35;;;27.40;70.10;;;;;;5129899;27;20247;-74
2021/06/17 01:00:09;;;;;;;25.20;15.77;;;27.00;70.80;;;;;;5124127;27;20200;-73
2021/06/17 01:02:36;;;;;;;23.60;15.25;;;26.70;71.50;;;;;;5130146;27;20196;-72
2021/06/17 01:05:04;;;;;;;26.00;15.55;;;26.50;72.00;;;;;;5130729;27;20673;-72
2021/06/17 01:07:48;;;;;;;27.70;15.30;;;26.40;72.40;;;;;;5128272;27;20200;-71
2021/06/17 01:10:26;;;;;;;24.50;15.32;;;26.20;72.80;;;;;;5128912;27;20204;-74
2021/06/17 01:13:02;;;;;;;28.77;16.48;;;26.10;73.20;;;;;;5129417;27;20216;-74
2021/06/17 01:15:32;;;;;;;26.27;15.35;;;26.00;73.60;;;;;;5123656;27;20211;-75
2021/06/17 01:18:07;;;;;;;29.90;15.13;;;26.00;74.00;;;;;;5128189;27;20204;-73
2021/06/17 01:20:41;;;;;;;25.23;14.73;;;26.00;74.40;;;;;;5128512;27;20204;-73
2021/06/17 01:23:27;;;;;;;23.63;15.77;;;25.90;74.80;;;;;;5129043;27;20203;-74
2021/06/17 01:26:09;;;;;;;30.90;15.73;;;25.90;75.00;;;;;;5130777;27;20200;-74
2021/06/17 01:28:39;;;;;;;25.63;16.73;;;25.90;75.30;;;;;;5127402;27;20193;-75
2021/06/17 01:31:10;;;;;;;29.10;17.10;;;25.90;75.80;;;;;;5129979;27;20269;-75
2021/06/17 01:33:39;;;;;;;32.33;16.92;;;25.90;76.10;;;;;;5129117;27;22048;-74
2021/06/17 01:36:10;;;;;;;27.83;16.65;;;25.90;76.50;;;;;;5128984;27;20664;-74
2021/06/17 01:38:38;;;;;;;28.45;16.35;;;25.80;76.70;;;;;;5127599;27;20211;-73
2021/06/17 01:41:07;;;;;;;26.83;17.33;;;25.80;76.90;;;;;;5130430;27;20196;-73
2021/06/17 01:43:37;;;;;;;30.73;17.30;;;25.80;77.30;;;;;;5126061;27;20564;-73
2021/06/17 01:46:04;;;;;;;29.23;17.15;;;25.80;77.60;;;;;;5130849;27;20197;-74
2021/06/17 01:48:32;;;;;;;28.38;16.33;;;25.80;77.90;;;;;;5128767;27;20657;-74
2021/06/17 01:50:59;;;;;;;26.63;17.48;;;25.80;78.20;;;;;;5130027;27;20204;-73
2021/06/17 01:53:27;;;;;;;28.88;18.30;;;25.80;78.50;;;;;;5127374;27;20211;-74
2021/06/17 01:55:57;;;;;;;23.42;17.52;;;25.80;78.70;;;;;;5128915;27;20199;-73
2021/06/17 01:58:25;;;;;;;28.48;17.88;;;25.80;79.00;;;;;;5129203;27;20224;-73
2021/06/17 02:00:56;;;;;;;25.73;17.35;;;25.70;79.20;;;;;;5126778;27;20472;-75
2021/06/17 02:03:25;;;;;;;27.98;17.95;;;26.30;79.20;;;;;;5124662;27;20430;-74
2021/06/17 02:05:53;;;;;;;29.65;17.60;;;26.60;78.40;;;;;;5125833;27;20774;-73
2021/06/17 02:08:21;;;;;;;23.77;17.27;;;26.70;77.80;;;;;;5127895;27;20433;-74
2021/06/17 02:10:50;;;;;;;28.33;18.53;;;26.80;77.50;;;;;;5127773;28;20463;-75
2021/06/17 02:13:18;;;;;;;23.60;17.20;;;26.90;77.50;;;;;;5126078;27;20485;-75
2021/06/17 02:15:46;;;;;;;26.42;17.88;;;27.00;77.50;;;;;;5128187;27;20418;-75
2021/06/17 02:18:21;;;;;;;22.80;17.75;;;27.00;77.30;;;;;;5125653;28;20426;-72
2021/06/17 02:20:48;;;;;;;25.30;17.73;;;27.00;77.10;;;;;;5127847;28;20406;-74
2021/06/17 02:23:16;;;;;;;26.50;18.15;;;27.10;77.00;;;;;;5126427;28;20778;-73
2021/06/17 02:25:45;;;;;;;23.13;17.48;;;27.10;76.90;;;;;;5128334;27;20501;-75
2021/06/17 02:28:15;;;;;;;25.55;17.50;;;27.10;77.00;;;;;;5125274;27;20453;-73
2021/06/17 02:30:44;;;;;;;26.05;17.67;;;27.10;76.90;;;;;;5127526;27;20530;-73
2021/06/17 02:33:13;;;;;;;24.45;17.98;;;27.10;76.90;;;;;;5124108;28;20426;-73
2021/06/17 02:35:44;;;;;;;25.38;17.67;;;27.10;77.00;;;;;;5127642;28;20441;-74
2021/06/17 02:38:14;;;;;;;23.70;17.88;;;27.10;76.90;;;;;;5126988;27;20554;-76
2021/06/17 02:40:44;;;;;;;23.02;17.38;;;27.10;76.90;;;;;;5127849;27;20410;-73
2021/06/17 02:43:17;;;;;;;24.93;17.33;;;27.10;76.80;;;;;;5124076;27;20776;-75
2021/06/17 02:45:45;;;;;;;23.60;17.85;;;27.10;76.90;;;;;;5126076;27;20510;-75
2021/06/17 02:48:13;;;;;;;25.02;17.90;;;27.10;76.80;;;;;;5120615;27;21076;-74
2021/06/17 02:50:41;;;;;;;24.02;17.80;;;27.00;76.50;;;;;;5126594;28;20475;-73
2021/06/17 02:53:09;;;;;;;22.33;17.58;;;27.00;76.30;;;;;;5126240;28;20419;-73
2021/06/17 02:55:36;;;;;;;22.93;17.03;;;27.00;76.00;;;;;;5125938;27;20436;-73
2021/06/17 02:58:30;;;;;;;23.20;17.55;;;27.00;76.00;;;;;;5128072;27;20425;-73
2021/06/17 03:01:03;;;;;;;23.85;17.27;;;27.00;75.90;;;;;;5125839;27;20802;-75
2021/06/17 03:03:36;;;;;;;23.00;17.20;;;27.00;76.10;;;;;;5124877;28;20411;-74
2021/06/17 03:06:13;;;;;;;20.75;16.95;;;27.00;76.10;;;;;;5128079;28;20735;-73
2021/06/17 03:08:45;;;;;;;22.55;17.30;;;26.90;76.10;;;;;;5124610;27;20509;-74
2021/06/17 03:11:14;;;;;;;25.40;17.65;;;26.90;76.00;;;;;;5127888;27;20421;-73
2021/06/17 03:13:43;;;;;;;25.42;17.67;;;26.90;76.10;;;;;;5124569;27;20412;-73
2021/06/17 03:16:14;;;;;;;26.47;17.33;;;26.80;75.90;;;;;;5127940;27;20938;-73
2021/06/17 03:18:42;;;;;;;28.85;17.95;;;26.80;75.70;;;;;;5125525;27;20424;-75
2021/06/17 03:21:11;;;;;;;24.10;17.50;;;26.80;75.50;;;;;;5124800;27;20426;-74
2021/06/17 03:23:40;;;;;;;22.95;17.48;;;26.80;75.20;;;;;;5120450;27;20420;-74
2021/06/17 03:26:11;;;;;;;22.17;17.37;;;26.70;74.70;;;;;;5130138;27;20422;-74
2021/06/17 03:28:39;;;;;;;22.77;16.80;;;26.70;74.40;;;;;;5128630;27;20420;-74
2021/06/17 03:31:08;;;;;;;21.42;17.35;;;26.70;74.10;;;;;;5129323;27;20433;-75
2021/06/17 03:33:37;;;;;;;20.67;17.20;;;26.70;74.00;;;;;;5129905;27;20427;-73
2021/06/17 03:36:07;;;;;;;20.02;16.88;;;26.60;74.00;;;;;;5129719;27;20422;-74
2021/06/17 03:38:36;;;;;;;21.25;16.88;;;26.60;74.10;;;;;;5129500;27;20410;-74
2021/06/17 03:41:05;;;;;;;22.73;16.75;;;26.60;74.00;;;;;;5129771;27;20782;-74
2021/06/17 03:43:34;;;;;;;24.48;16.95;;;26.60;73.90;;;;;;5127837;27;20489;-74
2021/06/17 03:46:02;;;;;;;22.83;17.00;;;26.60;73.60;;;;;;5129685;27;20442;-75
2021/06/17 03:48:29;;;;;;;22.92;17.05;;;26.60;73.60;;;;;;5127292;27;20418;-74
2021/06/17 03:50:58;;;;;;;21.75;16.15;;;26.60;73.80;;;;;;5129524;27;20402;-75
2021/06/17 03:53:26;;;;;;;23.10;16.77;;;26.60;73.70;;;;;;5127445;27;20426;-75
2021/06/17 03:55:55;;;;;;;20.73;17.23;;;26.60;73.40;;;;;;5126970;27;20426;-74
2021/06/17 03:58:24;;;;;;;23.27;16.45;;;26.50;73.20;;;;;;5127504;27;20417;-75
2021/06/17 04:00:53;;;;;;;22.02;16.70;;;26.50;73.00;;;;;;5129642;27;20433;-75
2021/06/17 04:03:21;;;;;;;24.13;16.07;;;26.50;73.00;;;;;;5126967;27;20418;-74
2021/06/17 04:05:49;;;;;;;20.20;15.90;;;26.50;73.10;;;;;;5129697;27;20960;-75
2021/06/17 04:08:17;;;;;;;20.55;16.10;;;26.50;72.80;;;;;;5128595;27;21134;-74
2021/06/17 04:10:44;;;;;;;22.17;16.50;;;26.50;73.20;;;;;;5128384;27;20422;-74
2021/06/17 04:13:14;;;;;;;20.27;15.82;;;26.50;73.10;;;;;;5125272;27;20422;-75
2021/06/17 04:15:43;;;;;;;24.70;15.70;;;26.50;72.80;;;;;;5127532;27;20433;-74
2021/06/17 04:18:11;;;;;;;22.35;15.82;;;26.50;72.60;;;;;;5128237;27;20500;-75
2021/06/17 04:20:43;;;;;;;23.33;15.50;;;26.50;72.30;;;;;;5128465;27;20912;-74
2021/06/17 04:23:12;;;;;;;20.55;15.60;;;26.50;72.20;;;;;;5130809;27;20759;-73
2021/06/17 04:25:41;;;;;;;22.27;15.70;;;26.50;72.20;;;;;;5126677;27;20444;-74
2021/06/17 04:28:09;;;;;;;19.50;15.48;;;26.50;72.30;;;;;;5130746;27;20417;-73
2021/06/17 04:30:37;;;;;;;19.55;16.02;;;26.50;72.10;;;;;;5128460;27;20963;-73
2021/06/17 04:33:06;;;;;;;20.88;15.88;;;26.50;72.10;;;;;;5127599;27;20454;-72
2021/06/17 04:35:42;;;;;;;23.50;15.60;;;26.50;72.10;;;;;;5129066;27;20425;-73
2021/06/17 04:38:11;;;;;;;21.13;15.43;;;26.50;72.20;;;;;;5127386;27;20918;-73
2021/06/17 04:40:39;;;;;;;21.97;16.00;;;26.50;72.30;;;;;;5128236;27;20426;-74
2021/06/17 04:43:09;;;;;;;19.48;15.68;;;26.50;72.10;;;;;;5128179;27;20905;-73
2021/06/17 04:45:38;;;;;;;20.02;15.32;;;26.50;72.00;;;;;;5123941;27;20422;-73
2021/06/17 04:48:09;;;;;;;19.70;15.35;;;26.50;72.10;;;;;;5125445;27;20426;-72
2021/06/17 04:50:37;;;;;;;21.73;15.02;;;26.60;72.50;;;;;;5128439;27;20492;-72
2021/06/17 04:53:12;;;;;;;22.00;15.10;;;26.60;72.70;;;;;;5126400;27;20425;-75
2021/06/17 04:55:42;;;;;;;22.33;14.80;;;26.60;72.70;;;;;;5124921;27;20426;-73
2021/06/17 04:58:09;;;;;;;19.40;15.43;;;26.60;72.60;;;;;;5127497;27;20431;-72
2021/06/17 05:00:38;;;;;;;21.90;15.23;;;26.60;72.60;;;;;;5124433;27;20831;-74
2021/06/17 05:03:05;;;;;;;21.97;16.00;;;26.60;72.30;;;;;;5125310;27;20481;-73
2021/06/17 05:05:32;;;;;;;20.38;14.98;;;26.60;72.30;;;;;;5125556;27;20422;-73
2021/06/17 05:10:52;;;;;;;17.60;14.67;;;26.60;72.40;;;;;;5124585;27;20704;-73
2021/06/17 05:13:20;;;;;;;22.92;15.88;;;26.60;72.60;;;;;;5121036;27;20950;-73
2021/06/17 05:15:49;;;;;;;24.83;16.23;;;26.60;72.40;;;;;;5128920;27;20471;-74
2021/06/17 05:18:18;;;;;;;22.05;15.52;;;26.70;72.50;;;;;;5128352;27;20414;-72
2021/06/17 05:20:45;;;;;;;19.00;15.48;;;26.60;72.30;;;;;;5128387;27;20577;-74
2021/06/17 05:23:14;;;;;;;18.45;15.50;;;26.60;72.40;;;;;;5130158;27;20459;-73
2021/06/17 05:25:41;;;;;;;19.65;14.77;;;26.60;72.50;;;;;;5125677;27;20406;-73
2021/06/17 05:28:08;;;;;;;21.15;15.43;;;26.60;73.30;;;;;;5129114;27;20406;-71
2021/06/17 05:30:35;;;;;;;19.67;15.53;;;26.60;72.80;;;;;;5128561;27;20448;-70
2021/06/17 05:33:04;;;;;;;21.95;14.40;;;26.60;73.00;;;;;;5127850;27;20434;-71
2021/06/17 05:35:30;;;;;;;17.52;13.93;;;26.60;72.80;;;;;;5127595;27;20422;-70
2021/06/17 05:37:57;;;;;;;19.13;13.95;;;26.60;73.00;;;;;;5129923;27;20412;-72
2021/06/17 05:40:24;;;;;;;21.00;13.95;;;26.60;73.10;;;;;;5129812;27;20417;-73
2021/06/17 05:42:51;;;;;;;17.33;13.43;;;26.60;73.20;;;;;;5128172;27;20736;-71
2021/06/17 05:45:18;;;;;;;25.65;12.45;;;26.70;73.40;;;;;;5129347;27;20406;-72
2021/06/17 05:47:45;;;;;;;22.20;13.50;;;26.70;73.50;;;;;;5128521;27;20425;-72
2021/06/17 05:50:14;;;;;;;23.77;13.40;;;26.70;72.90;;;;;;5127280;27;20513;-71
2021/06/17 05:52:41;;;;;;;21.02;12.57;;;26.70;73.00;;;;;;5128858;27;20754;-71
2021/06/17 05:55:09;;;;;;;19.42;13.35;;;26.70;73.10;;;;;;5129507;27;20410;-72
2021/06/17 05:57:38;;;;;;;21.08;13.73;;;26.80;72.90;;;;;;5128566;27;20410;-73
2021/06/17 06:00:08;;;;;;;18.90;13.00;;;26.80;72.30;;;;;;5126754;27;20426;-73
2021/06/17 06:02:35;;;;;;;25.80;13.40;;;26.80;72.60;;;;;;5128907;27;20403;-73
2021/06/17 06:05:02;;;;;;;18.58;13.02;;;26.90;72.70;;;;;;5129215;27;20398;-72
2021/06/17 06:07:30;;;;;;;20.75;12.48;;;26.90;72.70;;;;;;5129075;27;20414;-73
2021/06/17 06:09:57;;;;;;;17.27;12.47;;;27.00;73.00;;;;;;5128381;27;20402;-73
2021/06/17 06:12:24;;;;;;;16.25;12.50;;;27.00;72.70;;;;;;5126811;28;20425;-72
2021/06/17 06:14:51;;;;;;;21.20;12.30;;;27.00;72.70;;;;;;5129286;27;20425;-74
2021/06/17 06:17:18;;;;;;;17.88;11.57;;;27.00;73.30;;;;;;5118231;27;20430;-73
2021/06/17 06:19:45;;;;;;;15.23;11.00;;;27.10;73.40;;;;;;5127139;27;20478;-71
2021/06/17 06:22:11;;;;;;;19.10;10.82;;;27.10;73.00;;;;;;5129023;28;20416;-72
2021/06/17 06:24:40;;;;;;;16.95;10.50;;;27.20;73.20;;;;;;5126558;27;20403;-72
2021/06/17 06:27:08;;;;;;;11.93;9.75;;;27.20;72.60;;;;;;5128246;27;20417;-74
2021/06/17 06:29:36;;;;;;;13.18;9.30;;;27.30;71.60;;;;;;5128595;27;20494;-74
2021/06/17 06:32:04;;;;;;;15.30;9.75;;;27.40;71.80;;;;;;5127033;27;20467;-74
2021/06/17 06:34:31;;;;;;;17.55;9.55;;;27.40;71.60;;;;;;5126458;28;20863;-74
2021/06/17 06:36:58;;;;;;;16.85;9.77;;;27.50;71.70;;;;;;5127069;28;20932;-73
2021/06/17 06:39:24;;;;;;;13.05;9.35;;;27.60;71.40;;;;;;5128241;27;20417;-73
2021/06/17 06:41:53;;;;;;;14.00;9.20;;;27.60;71.30;;;;;;5128224;27;20413;-74
2021/06/17 06:44:21;;;;;;;16.50;8.73;;;27.70;71.40;;;;;;5128104;27;20886;-73
2021/06/17 06:46:50;;;;;;;14.60;9.23;;;27.70;70.60;;;;;;5125760;28;20429;-73
2021/06/17 06:49:17;;;;;;;15.07;8.75;;;27.80;69.40;;;;;;5127026;28;20398;-74
2021/06/17 06:51:44;;;;;;;16.63;8.77;;;27.80;69.00;;;;;;5127207;28;20421;-73
2021/06/17 06:54:12;;;;;;;14.18;8.43;;;27.90;69.00;;;;;;5128026;28;20422;-71
2021/06/17 06:56:39;;;;;;;15.80;8.37;;;27.90;68.00;;;;;;5127571;27;20418;-71
2021/06/17 06:59:08;;;;;;;13.90;8.60;;;27.90;67.50;;;;;;5128546;27;20491;-72
2021/06/17 07:01:36;;;;;;;15.13;8.85;;;28.00;67.00;;;;;;5131667;27;20450;-71
2021/06/17 07:04:03;;;;;;;14.95;8.48;;;28.00;66.60;;;;;;5129852;27;20501;-72
2021/06/17 07:06:30;;;;;;;16.08;8.10;;;28.00;65.90;;;;;;5132906;27;20410;-71
2021/06/17 07:08:56;;;;;;;16.30;8.05;;;28.00;65.60;;;;;;5129808;27;20453;-72
2021/06/17 07:11:23;;;;;;;21.67;9.33;;;28.00;65.00;;;;;;5129368;27;20438;-72
2021/06/17 07:13:50;;;;;;;15.50;8.38;;;28.00;64.50;;;;;;5123624;27;20430;-74
2021/06/17 07:16:18;;;;;;;17.95;8.77;;;28.00;63.90;;;;;;5131508;27;20413;-74
2021/06/17 07:18:45;;;;;;;12.65;9.40;;;28.00;63.80;;;;;;5128169;27;20422;-73
2021/06/17 07:21:14;;;;;;;16.20;9.88;;;28.00;64.00;;;;;;5131517;27;20743;-75
2021/06/17 07:23:41;;;;;;;16.60;10.00;;;28.00;63.80;;;;;;5131795;27;20406;-74
2021/06/17 07:26:08;;;;;;;15.20;9.43;;;28.00;64.40;;;;;;5130936;27;20463;-74
2021/06/17 07:28:35;;;;;;;13.40;8.40;;;28.00;64.90;;;;;;5129292;27;20422;-73
2021/06/17 07:31:02;;;;;;;14.85;7.70;;;28.00;64.80;;;;;;5126989;27;20881;-74
2021/06/17 07:33:30;;;;;;;13.73;6.07;;;28.00;64.40;;;;;;5128996;27;20499;-74
2021/06/17 07:35:57;;;;;;;15.65;6.00;;;28.00;64.00;;;;;;5126612;27;20418;-73
2021/06/17 07:38:24;;;;;;;12.80;5.10;;;28.00;64.00;;;;;;5128676;27;20428;-73
2021/06/17 07:40:51;;;;;;;14.00;5.22;;;28.00;64.40;;;;;;5131239;27;21058;-73
2021/06/17 07:43:17;;;;;;;12.73;4.65;;;28.00;64.60;;;;;;5129728;27;20905;-74
2021/06/17 07:45:44;;;;;;;12.90;4.70;;;28.00;64.80;;;;;;5128800;27;20422;-72
2021/06/17 07:48:12;;;;;;;12.13;4.80;;;28.00;65.00;;;;;;5130266;27;20446;-73
2021/06/17 07:50:42;;;;;;;13.27;5.07;;;27.90;65.30;;;;;;5128210;27;20414;-73
2021/06/17 07:53:09;;;;;;;12.50;5.38;;;27.90;65.60;;;;;;5130286;27;20783;-72
2021/06/17 07:55:36;;;;;;;14.00;5.45;;;27.90;65.60;;;;;;5127186;27;20442;-73
2021/06/17 07:58:04;;;;;;;14.05;6.03;;;27.80;65.50;;;;;;5129243;27;20494;-73
2021/06/17 08:00:31;;;;;;;12.82;6.15;;;27.80;66.00;;;;;;5129398;27;20946;-72
2021/06/17 08:02:58;;;;;;;14.95;6.00;;;27.80;66.00;;;;;;5130686;27;20402;-73
2021/06/17 08:05:26;;;;;;;14.05;5.70;;;27.80;66.30;;;;;;5129635;27;20432;-73
2021/06/17 08:07:54;;;;;;;10.43;6.07;;;27.70;66.70;;;;;;5127579;27;20410;-72
2021/06/17 08:10:23;;;;;;;19.40;6.93;;;27.70;66.80;;;;;;5128727;27;20429;-73
2021/06/17 08:12:50;;;;;;;14.95;6.70;;;27.80;67.20;;;;;;5131349;27;20421;-73
2021/06/17 08:15:17;;;;;;;12.77;6.63;;;27.70;67.10;;;;;;5129534;27;20429;-74
2021/06/17 08:17:44;;;;;;;17.93;7.10;;;27.70;67.40;;;;;;5128459;27;20493;-73
2021/06/17 08:20:12;;;;;;;12.40;7.00;;;27.60;67.50;;;;;;5129677;27;20937;-72
2021/06/17 08:22:41;;;;;;;13.57;6.60;;;27.60;68.10;;;;;;5125482;27;20429;-74
2021/06/17 08:25:11;;;;;;;13.48;6.20;;;27.50;68.60;;;;;;5129243;27;20775;-72
2021/06/17 08:27:38;;;;;;;11.77;5.72;;;27.60;68.80;;;;;;5127556;27;20419;-74
2021/06/17 08:30:07;;;;;;;10.73;6.30;;;27.70;68.70;;;;;;5128636;27;20422;-72
2021/06/17 08:32:34;;;;;;;11.65;5.68;;;27.70;68.20;;;;;;5131740;27;20962;-71
2021/06/17 08:35:01;;;;;;;10.60;6.30;;;27.80;68.40;;;;;;5127656;27;20411;-76
2021/06/17 08:37:28;;;;;;;9.70;5.68;;;27.80;68.40;;;;;;5127880;27;21165;-73
2021/06/17 08:39:56;;;;;;;11.40;6.00;;;27.80;68.30;;;;;;5126635;27;20489;-73
2021/06/17 08:42:28;;;;;;;9.45;5.82;;;27.90;68.20;;;;;;5131435;27;20404;-73
2021/06/17 08:44:55;;;;;;;12.93;5.63;;;27.90;68.20;;;;;;5128696;27;20817;-75
2021/06/17 08:47:22;;;;;;;9.17;5.83;;;27.90;68.10;;;;;;5128099;27;20418;-74
2021/06/17 08:49:51;;;;;;;7.97;5.13;;;28.00;68.30;;;;;;5126050;27;20787;-76
2021/06/17 08:52:19;;;;;;;10.20;5.50;;;28.00;68.60;;;;;;5127113;27;20430;-75
2021/06/17 08:54:46;;;;;;;7.78;5.05;;;28.10;68.00;;;;;;5128583;27;20422;-74
2021/06/17 08:57:14;;;;;;;8.38;5.40;;;28.20;67.70;;;;;;5130202;27;20477;-73
2021/06/17 08:59:45;;;;;;;9.57;5.07;;;28.30;67.30;;;;;;5129758;27;20429;-73
2021/06/17 09:02:12;;;;;;;8.80;5.47;;;28.30;66.70;;;;;;5129307;27;20424;-75
2021/06/17 09:04:39;;;;;;;9.90;5.20;;;28.40;66.50;;;;;;5127793;27;20417;-74
2021/06/17 09:07:08;;;;;;;10.95;5.43;;;28.40;66.50;;;;;;5125241;27;20987;-74
2021/06/17 09:09:41;;;;;;;10.82;5.68;;;28.50;66.50;;;;;;5126387;27;20437;-74
2021/06/17 09:12:10;;;;;;;9.32;4.78;;;28.50;66.30;;;;;;5129456;27;20782;-73
2021/06/17 09:14:38;;;;;;;7.70;4.80;;;28.60;66.10;;;;;;5127899;27;20437;-72
2021/06/17 09:17:08;;;;;;;11.18;5.13;;;28.60;65.30;;;;;;5130318;27;20414;-74
2021/06/17 09:19:37;;;;;;;7.13;4.38;;;28.70;65.50;;;;;;5120899;27;20426;-73
2021/06/17 09:22:05;;;;;;;5.13;3.90;;;28.70;65.00;;;;;;5123678;27;20488;-72
2021/06/17 09:24:34;;;;;;;6.88;4.10;;;28.80;64.40;;;;;;5126134;27;20415;-73
2021/06/17 09:27:19;;;;;;;9.05;4.30;;;28.80;64.10;;;;;;5128316;27;20897;-73
2021/06/17 09:29:46;;;;;;;8.18;5.10;;;28.90;63.60;;;;;;5126281;27;21060;-73
2021/06/17 09:32:20;;;;;;;8.45;4.72;;;29.00;63.50;;;;;;5130134;27;20411;-72
2021/06/17 09:34:47;;;;;;;10.30;4.85;;;29.00;63.70;;;;;;5127719;27;20517;-73
2021/06/17 09:37:35;;;;;;;8.98;4.57;;;29.10;64.30;;;;;;5126739;27;20938;-74
2021/06/17 09:40:21;;;;;;;7.03;4.65;;;29.20;64.30;;;;;;5128356;27;20475;-74
2021/06/17 09:42:49;;;;;;;5.95;4.30;;;29.20;64.70;;;;;;5114660;27;20470;-73
2021/06/17 09:45:17;;;;;;;8.48;4.50;;;29.20;65.20;;;;;;5125052;27;20418;-73
2021/06/17 09:47:46;;;;;;;7.18;4.45;;;29.20;64.90;;;;;;5129293;27;20402;-73
2021/06/17 09:50:27;;;;;;;7.43;4.20;;;29.20;64.40;;;;;;5128064;27;20422;-73
2021/06/17 09:52:55;;;;;;;10.77;4.72;;;29.20;65.00;;;;;;5126736;27;20426;-74
2021/06/17 09:55:40;;;;;;;7.82;4.70;;;29.20;64.70;;;;;;5123164;27;20882;-74
2021/06/17 09:58:10;;;;;;;7.37;4.50;;;29.10;63.90;;;;;;5129399;27;20440;-72
2021/06/17 10:00:37;;;;;;;6.50;4.32;;;29.00;64.50;;;;;;5126350;27;20848;-72
2021/06/17 10:03:18;;;;;;;7.68;4.35;;;29.00;65.10;;;;;;5125093;27;20455;-75
2021/06/17 10:05:48;;;;;;;7.78;4.18;;;29.10;65.70;;;;;;5128069;27;20426;-73
2021/06/17 10:08:15;;;;;;;8.57;4.38;;;29.20;64.80;;;;;;5123060;27;20426;-73
2021/06/17 10:10:42;;;;;;;6.93;3.90;;;29.20;63.50;;;;;;5129340;27;20479;-72
2021/06/17 10:13:09;;;;;;;8.60;4.60;;;29.20;63.40;;;;;;5127411;27;20478;-72
2021/06/17 10:15:36;;;;;;;10.07;4.80;;;29.30;63.60;;;;;;5125314;28;20454;-74
2021/06/17 10:18:04;;;;;;;11.60;4.90;;;29.40;63.80;;;;;;5127175;28;20422;-72
2021/06/17 10:20:32;;;;;;;9.33;5.27;;;29.40;64.20;;;;;;5128092;28;20467;-73
2021/06/17 10:22:59;;;;;;;8.48;5.28;;;29.50;64.50;;;;;;5125343;28;20429;-73
2021/06/17 10:25:29;;;;;;;11.07;5.50;;;29.60;64.70;;;;;;5129426;27;20433;-73
2021/06/17 10:27:58;;;;;;;9.02;5.18;;;29.70;64.20;;;;;;5127751;28;20434;-72
2021/06/17 10:30:44;;;;;;;12.05;5.60;;;29.80;64.30;;;;;;5128045;27;20521;-74
2021/06/17 10:33:26;;;;;;;8.45;4.85;;;30.00;63.40;;;;;;5126618;27;20437;-72
2021/06/17 10:36:22;;;;;;;8.05;5.05;;;30.10;62.70;;;;;;5128770;27;20449;-73
2021/06/17 10:39:16;;;;;;;13.13;4.75;;;30.20;62.10;;;;;;5131770;27;20425;-74
2021/06/17 10:42:09;;;;;;;8.02;4.63;;;30.20;61.30;;;;;;5130823;27;20475;-75
2021/06/17 10:44:38;;;;;;;7.50;4.00;;;30.20;60.20;;;;;;5115578;27;20496;-74
2021/06/17 10:47:05;;;;;;;9.75;4.07;;;30.30;59.80;;;;;;5131355;27;20414;-73
2021/06/17 10:50:04;;;;;;;10.00;4.30;;;30.40;59.30;;;;;;5129923;27;20517;-75
2021/06/17 10:52:33;;;;;;;9.60;4.60;;;30.40;59.30;;;;;;5130338;27;20443;-75
2021/06/17 10:55:01;;;;;;;10.63;4.50;;;30.50;59.80;;;;;;5132079;27;20414;-75
2021/06/17 10:57:52;;;;;;;6.78;4.75;;;30.50;59.60;;;;;;5130679;27;20913;-73
2021/06/17 11:00:48;;;;;;;9.35;4.60;;;30.60;59.80;;;;;;5128914;27;20422;-74
2021/06/17 11:03:37;;;;;;;9.85;5.07;;;30.60;60.00;;;;;;5123664;27;20422;-74
2021/06/17 11:06:05;;;;;;;9.55;5.40;;;30.60;59.20;;;;;;5130639;27;20421;-73
2021/06/17 11:08:34;;;;;;;10.73;5.00;;;30.50;59.60;;;;;;5128145;27;20454;-74
2021/06/17 11:11:03;;;;;;;10.18;4.15;;;30.40;60.40;;;;;;5128590;27;20422;-73
2021/06/17 11:13:34;;;;;;;8.13;4.20;;;30.40;60.80;;;;;;5129260;27;20410;-73
2021/06/17 11:16:02;;;;;;;9.03;4.00;;;30.40;59.30;;;;;;5130081;27;20422;-72
2021/06/17 11:19:03;;;;;;;7.38;4.00;;;30.40;59.70;;;;;;5128985;27;20426;-74
2021/06/17 11:21:47;;;;;;;9.25;3.80;;;30.50;59.10;;;;;;5128394;27;20890;-73
2021/06/17 11:24:34;;;;;;;7.47;3.80;;;30.50;58.30;;;;;;5129976;27;20422;-73
2021/06/17 11:27:01;;;;;;;8.73;4.10;;;30.50;58.20;;;;;;5127780;27;20425;-74
2021/06/17 11:29:59;;;;;;;7.03;3.90;;;30.60;58.10;;;;;;5132195;27;20539;-74
2021/06/17 11:32:32;;;;;;;9.40;4.47;;;30.60;58.40;;;;;;5129378;27;20437;-74
2021/06/17 11:34:59;;;;;;;10.30;4.18;;;30.60;58.70;;;;;;5131656;27;20513;-74
2021/06/17 11:37:32;;;;;;;9.25;4.10;;;30.60;59.10;;;;;;5130413;27;20502;-74
2021/06/17 11:40:00;;;;;;;11.13;4.20;;;30.70;59.40;;;;;;5131509;27;20422;-72
2021/06/17 11:42:27;;;;;;;11.65;4.72;;;30.80;59.30;;;;;;5126236;27;20970;-74
2021/06/17 11:44:59;;;;;;;7.68;4.30;;;30.90;59.30;;;;;;5128707;27;20765;-73
2021/06/17 11:47:26;;;;;;;8.15;4.40;;;31.00;58.80;;;;;;5129562;27;20432;-73
2021/06/17 11:49:53;;;;;;;10.60;4.68;;;31.00;58.40;;;;;;5130966;27;20424;-74
2021/06/17 11:52:21;;;;;;;11.68;4.63;;;30.90;58.30;;;;;;5130977;27;20782;-73
2021/06/17 11:54:49;;;;;;;11.30;4.50;;;30.90;58.40;;;;;;5131319;27;20426;-73
2021/06/17 11:57:25;;;;;;;13.75;4.50;;;31.00;58.40;;;;;;5127339;27;20439;-73
2021/06/17 11:59:52;;;;;;;11.52;4.18;;;31.00;58.20;;;;;;5130948;27;20795;-73
2021/06/17 12:02:23;;;;;;;11.97;4.43;;;31.00;57.70;;;;;;5126848;27;20903;-74
2021/06/17 12:04:59;;;;;;;15.43;4.68;;;31.20;57.20;;;;;;5128732;27;20836;-74
2021/06/17 12:07:28;;;;;;;10.02;4.28;;;31.20;57.40;;;;;;5128487;27;20430;-74
2021/06/17 12:10:05;;;;;;;8.18;4.30;;;31.20;57.50;;;;;;5131702;27;20406;-72
2021/06/17 12:12:34;;;;;;;11.38;4.30;;;31.30;57.60;;;;;;5128130;27;20422;-73
2021/06/17 12:15:02;;;;;;;12.48;4.30;;;31.30;57.60;;;;;;5128085;27;20428;-74
2021/06/17 12:17:31;;;;;;;8.43;4.07;;;31.40;57.70;;;;;;5127173;27;20458;-72
2021/06/17 12:19:59;;;;;;;13.57;4.60;;;31.40;57.80;;;;;;5131281;27;20406;-74
2021/06/17 12:22:26;;;;;;;12.38;4.75;;;31.40;57.50;;;;;;5128677;27;20481;-73
2021/06/17 12:24:53;;;;;;;10.77;4.40;;;31.50;57.40;;;;;;5131209;27;20404;-76
2021/06/17 12:27:20;;;;;;;11.65;4.80;;;31.60;56.90;;;;;;5128179;27;20435;-73
2021/06/17 12:29:51;;;;;;;9.67;4.57;;;31.60;56.60;;;;;;5130597;27;20407;-74
2021/06/17 12:32:35;;;;;;;10.73;4.30;;;31.70;56.80;;;;;;5128687;27;20435;-74
2021/06/17 12:35:13;;;;;;;12.40;4.47;;;31.70;57.00;;;;;;5129719;27;20433;-74
2021/06/17 12:37:54;;;;;;;11.88;4.60;;;31.90;57.40;;;;;;5126948;27;20417;-74
2021/06/17 12:40:29;;;;;;;12.88;4.75;;;32.10;55.90;;;;;;5131163;27;20418;-73
2021/06/17 12:43:10;;;;;;;11.60;5.07;;;32.30;55.30;;;;;;5128039;27;20430;-72
2021/06/17 12:45:39;;;;;;;12.33;5.10;;;32.30;55.10;;;;;;5124842;27;20903;-73
2021/06/17 12:48:17;;;;;;;16.38;5.10;;;32.20;55.50;;;;;;5127908;27;20418;-74
2021/06/17 12:53:47;;;;;;;25.27;5.88;;;32.30;56.10;;;;;;5125555;27;20590;-73